createdAt,value
2018-06-09T00:02:22.530Z,9.50
2018-06-09T00:04:51.397Z,11.40
2018-06-09T00:07:20.313Z,57.58
2018-06-09T00:09:49.208Z,41.20
2018-06-09T00:12:18.342Z,21.85
2018-06-09T00:14:47.438Z,21.33
2018-06-09T00:17:16.661Z,14.87
2018-06-09T00:19:45.874Z,13.65
2018-06-09T00:22:14.980Z,12.47
2018-06-09T00:24:44.090Z,11.68
2018-06-09T00:27:13.211Z,13.15
2018-06-09T00:29:42.512Z,13.25
2018-06-09T00:32:11.670Z,13.85
2018-06-09T00:34:40.791Z,11.35
2018-06-09T00:37:09.888Z,10.85
2018-06-09T00:39:39.013Z,10.40
2018-06-09T00:42:08.131Z,11.85
2018-06-09T00:44:37.266Z,11.88
2018-06-09T00:47:06.446Z,11.45
2018-06-09T00:49:35.562Z,11.05
2018-06-09T00:52:04.714Z,9.75
2018-06-09T00:54:34.007Z,9.70
2018-06-09T00:57:03.242Z,9.68
2018-06-09T00:59:32.474Z,10.53
2018-06-09T01:02:02.018Z,10.00
2018-06-09T01:04:31.168Z,9.80
2018-06-09T01:07:00.438Z,11.38
2018-06-09T01:09:29.547Z,10.58
2018-06-09T01:11:58.679Z,10.25
2018-06-09T01:14:27.774Z,9.63
2018-06-09T01:16:56.878Z,10.95
2018-06-09T01:19:26.066Z,10.32
2018-06-09T01:21:55.174Z,9.90
2018-06-09T01:24:24.292Z,10.50
2018-06-09T01:26:53.408Z,9.93
2018-06-09T01:29:22.178Z,10.58
2018-06-09T01:31:51.192Z,12.35
2018-06-09T01:34:20.390Z,11.00
2018-06-09T01:36:49.486Z,11.75
2018-06-09T01:39:18.595Z,11.00
2018-06-09T01:41:47.706Z,10.48
2018-06-09T01:44:16.847Z,11.28
2018-06-09T01:46:45.967Z,10.25
2018-06-09T01:49:15.155Z,10.70
2018-06-09T01:51:44.252Z,11.18
2018-06-09T01:54:13.363Z,10.70
2018-06-09T01:56:42.506Z,10.68
2018-06-09T01:59:11.599Z,9.98
2018-06-09T02:01:40.758Z,10.58
2018-06-09T02:04:09.867Z,11.70
2018-06-09T02:06:39.031Z,10.53
2018-06-09T02:09:09.534Z,10.72
2018-06-09T02:11:38.654Z,11.03
2018-06-09T02:14:07.799Z,10.10
2018-06-09T02:16:36.895Z,11.10
2018-06-09T02:19:06.019Z,10.70
2018-06-09T02:21:35.143Z,10.88
2018-06-09T02:24:04.271Z,9.85
2018-06-09T02:26:33.398Z,11.00
2018-06-09T02:29:02.801Z,11.60
2018-06-09T02:31:31.968Z,10.58
2018-06-09T02:34:01.202Z,10.63
2018-06-09T02:36:30.410Z,10.90
2018-06-09T02:38:59.532Z,10.25
2018-06-09T02:41:28.675Z,11.43
2018-06-09T02:43:57.799Z,11.75
2018-06-09T02:46:26.935Z,10.50
2018-06-09T02:48:56.023Z,10.40
2018-06-09T02:51:25.138Z,10.88
2018-06-09T02:53:54.019Z,9.75
2018-06-09T02:56:23.111Z,10.88
2018-06-09T02:58:52.238Z,11.00
2018-06-09T03:01:21.343Z,10.68
2018-06-09T03:03:50.455Z,11.83
2018-06-09T03:06:19.551Z,10.70
2018-06-09T03:08:48.674Z,11.20
2018-06-09T03:11:17.787Z,10.38
2018-06-09T03:13:47.023Z,11.78
2018-06-09T03:16:16.154Z,10.45
2018-06-09T03:18:45.279Z,11.70
2018-06-09T03:21:14.402Z,12.43
2018-06-09T03:23:43.507Z,11.38
2018-06-09T03:26:12.619Z,11.15
2018-06-09T03:28:41.760Z,13.00
2018-06-09T03:31:10.975Z,10.45
2018-06-09T03:33:40.059Z,12.90
2018-06-09T03:36:09.163Z,12.55
2018-06-09T03:38:38.266Z,12.15
2018-06-09T03:41:07.380Z,12.37
2018-06-09T03:43:36.471Z,11.80
2018-06-09T03:46:05.615Z,12.25
2018-06-09T03:48:34.803Z,12.35
2018-06-09T03:51:03.954Z,12.63
2018-06-09T03:53:33.188Z,12.30
2018-06-09T03:56:02.286Z,12.35
2018-06-09T03:58:31.443Z,12.35
2018-06-09T04:01:00.543Z,11.78
2018-06-09T04:03:29.763Z,11.90
2018-06-09T04:05:58.865Z,11.97
2018-06-09T04:08:28.001Z,11.18
2018-06-09T04:10:57.116Z,11.70
2018-06-09T04:13:26.211Z,13.20
2018-06-09T04:15:55.311Z,13.48
2018-06-09T04:18:24.395Z,12.35
2018-06-09T04:20:53.503Z,13.72
2018-06-09T04:23:22.617Z,11.73
2018-06-09T04:25:51.731Z,11.25
2018-06-09T04:28:21.006Z,12.55
2018-06-09T04:30:50.105Z,14.45
2018-06-09T04:33:19.216Z,13.00
2018-06-09T04:35:48.330Z,12.03
2018-06-09T04:38:17.430Z,12.03
2018-06-09T04:40:46.609Z,13.10
2018-06-09T04:43:15.827Z,11.88
2018-06-09T04:45:45.025Z,13.98
2018-06-09T04:48:14.143Z,11.95
2018-06-09T04:50:43.256Z,12.35
2018-06-09T04:53:12.367Z,13.60
2018-06-09T04:55:41.467Z,13.32
2018-06-09T04:58:10.579Z,12.47
2018-06-09T05:00:39.694Z,12.73
2018-06-09T05:03:08.895Z,11.45
2018-06-09T05:05:38.024Z,12.10
2018-06-09T05:08:07.123Z,13.05
2018-06-09T05:10:36.363Z,11.73
2018-06-09T05:13:05.520Z,13.68
2018-06-09T05:15:34.707Z,12.18
2018-06-09T05:18:03.870Z,12.73
2018-06-09T05:20:33.035Z,14.00
2018-06-09T05:23:02.234Z,13.80
2018-06-09T05:25:31.343Z,12.90
2018-06-09T05:28:00.521Z,14.00
2018-06-09T05:30:29.734Z,13.45
2018-06-09T05:32:58.921Z,13.55
2018-06-09T05:35:28.040Z,13.72
2018-06-09T05:37:57.152Z,13.00
2018-06-09T05:40:26.351Z,11.65
2018-06-09T05:42:55.466Z,12.80
2018-06-09T05:45:24.590Z,14.05
2018-06-09T05:47:53.694Z,12.07
2018-06-09T05:50:22.815Z,12.75
2018-06-09T05:52:51.911Z,12.90
2018-06-09T05:55:21.043Z,12.50
2018-06-09T05:57:50.138Z,12.70
2018-06-09T06:00:19.251Z,13.35
2018-06-09T06:02:48.355Z,13.38
2018-06-09T06:05:17.548Z,12.45
2018-06-09T06:07:46.635Z,13.15
2018-06-09T06:10:15.758Z,12.50
2018-06-09T06:12:44.875Z,12.73
2018-06-09T06:15:20.310Z,12.67
2018-06-09T06:17:55.638Z,12.82
2018-06-09T06:20:31.055Z,13.13
2018-06-09T06:23:06.366Z,11.40
2018-06-09T06:25:41.723Z,12.13
2018-06-09T06:28:10.998Z,12.10
2018-06-09T06:30:40.102Z,11.20
2018-06-09T06:33:09.209Z,11.50
2018-06-09T06:35:38.331Z,10.85
2018-06-09T06:38:07.471Z,10.13
2018-06-09T06:40:36.577Z,11.27
2018-06-09T06:43:05.698Z,11.33
2018-06-09T06:45:34.947Z,10.47
2018-06-09T06:48:04.135Z,11.20
2018-06-09T06:50:33.544Z,10.63
2018-06-09T06:53:02.876Z,11.67
2018-06-09T06:55:32.155Z,10.97
2018-06-09T06:58:01.409Z,10.20
2018-06-09T07:00:30.599Z,10.57
2018-06-09T07:02:59.776Z,9.67
2018-06-09T07:05:28.930Z,9.50
2018-06-09T07:07:58.104Z,9.23
2018-06-09T07:10:27.273Z,8.30
2018-06-09T07:12:56.528Z,8.07
2018-06-09T07:15:25.637Z,7.20
2018-06-09T07:17:54.733Z,8.03
2018-06-09T07:20:23.850Z,7.50
2018-06-09T07:22:52.955Z,7.77
2018-06-09T07:25:22.046Z,8.70
2018-06-09T07:27:51.158Z,7.80
2018-06-09T07:30:19.891Z,8.80
2018-06-09T07:32:48.987Z,7.87
2018-06-09T07:35:18.091Z,8.60
2018-06-09T07:37:47.281Z,7.90
2018-06-09T07:40:16.386Z,8.27
2018-06-09T07:42:45.516Z,9.60
2018-06-09T07:45:14.624Z,8.10
2018-06-09T07:47:43.747Z,8.63
2018-06-09T07:50:13.934Z,9.03
2018-06-09T07:52:43.052Z,8.27
2018-06-09T07:55:12.207Z,8.40
2018-06-09T07:57:41.719Z,8.07
2018-06-09T08:00:10.850Z,8.70
2018-06-09T08:02:40.002Z,9.03
2018-06-09T08:05:09.187Z,8.70
2018-06-09T08:07:38.338Z,8.50
2018-06-09T08:10:07.556Z,7.80
2018-06-09T08:12:36.778Z,9.50
2018-06-09T08:15:05.910Z,8.63
2018-06-09T08:17:35.160Z,8.30
2018-06-09T08:20:04.399Z,9.33
2018-06-09T08:22:33.752Z,8.43
2018-06-09T08:25:02.968Z,8.30
2018-06-09T08:27:32.171Z,7.70
2018-06-09T08:30:01.345Z,7.40
2018-06-09T08:32:30.494Z,7.40
2018-06-09T08:34:59.715Z,9.27
2018-06-09T08:37:28.926Z,8.30
2018-06-09T08:39:58.048Z,7.87
2018-06-09T08:42:27.164Z,8.20
2018-06-09T08:44:56.272Z,9.63
2018-06-09T08:47:25.372Z,8.87
2018-06-09T08:49:54.837Z,8.77
2018-06-09T08:52:23.907Z,8.90
2018-06-09T08:54:53.358Z,8.07
2018-06-09T08:57:22.436Z,6.90
2018-06-09T08:59:51.267Z,7.60
2018-06-09T09:02:20.293Z,7.57
2018-06-09T09:04:49.368Z,7.47
2018-06-09T09:07:18.900Z,7.93
2018-06-09T09:09:48.015Z,7.30
2018-06-09T09:12:17.127Z,7.33
2018-06-09T09:14:46.252Z,8.23
2018-06-09T09:17:15.371Z,6.87
2018-06-09T09:19:44.451Z,7.30
2018-06-09T09:22:13.655Z,6.77
2018-06-09T09:24:42.774Z,7.80
2018-06-09T09:27:11.848Z,6.90
2018-06-09T09:29:41.013Z,7.87
2018-06-09T09:32:10.178Z,7.30
2018-06-09T09:34:39.300Z,7.07
2018-06-09T09:37:08.454Z,6.90
2018-06-09T09:39:37.559Z,8.00
2018-06-09T09:42:06.667Z,6.70
2018-06-09T09:44:35.786Z,7.37
2018-06-09T09:47:05.102Z,6.80
2018-06-09T09:49:33.866Z,7.33
2018-06-09T09:52:02.956Z,8.00
2018-06-09T09:54:32.179Z,7.50
2018-06-09T09:57:01.401Z,7.13
2018-06-09T09:59:31.723Z,7.23
2018-06-09T10:02:00.921Z,7.60
2018-06-09T10:04:30.062Z,7.40
2018-06-09T10:06:59.222Z,8.37
2018-06-09T10:09:28.307Z,8.23
2018-06-09T10:11:57.443Z,7.60
2018-06-09T10:14:26.596Z,7.20
2018-06-09T10:16:55.694Z,7.23
2018-06-09T10:19:24.787Z,6.70
2018-06-09T10:21:53.891Z,6.90
2018-06-09T10:24:23.014Z,7.20
2018-06-09T10:26:52.151Z,6.97
2018-06-09T10:29:21.250Z,6.93
2018-06-09T10:31:50.322Z,6.70
2018-06-09T10:34:19.444Z,7.10
2018-06-09T10:36:48.532Z,7.33
2018-06-09T10:39:17.652Z,6.87
2018-06-09T10:41:46.806Z,6.47
2018-06-09T10:44:15.901Z,7.57
2018-06-09T10:46:44.984Z,7.67
2018-06-09T10:49:14.066Z,8.13
2018-06-09T10:51:43.159Z,8.07
2018-06-09T10:54:11.942Z,7.17
2018-06-09T10:56:40.971Z,7.50
2018-06-09T10:59:09.723Z,6.90
2018-06-09T11:01:38.731Z,6.67
2018-06-09T11:04:08.334Z,6.67
2018-06-09T11:06:38.799Z,6.03
2018-06-09T11:09:07.914Z,6.30
2018-06-09T11:11:37.014Z,6.40
2018-06-09T11:14:06.129Z,6.70
2018-06-09T11:16:35.283Z,6.07
2018-06-09T11:19:04.410Z,5.73
2018-06-09T11:21:33.711Z,5.50
2018-06-09T11:24:03.000Z,4.73
2018-06-09T11:26:32.500Z,5.30
2018-06-09T11:29:01.816Z,4.73
2018-06-09T11:31:30.738Z,4.83
2018-06-09T11:33:59.760Z,5.40
2018-06-09T11:36:29.227Z,5.20
2018-06-09T11:38:58.368Z,5.67
2018-06-09T11:41:27.431Z,5.87
2018-06-09T11:43:56.748Z,5.90
2018-06-09T11:46:25.896Z,4.27
2018-06-09T11:48:55.092Z,4.50
2018-06-09T11:51:24.175Z,4.70
2018-06-09T11:53:53.274Z,4.67
2018-06-09T11:56:22.395Z,4.70
2018-06-09T11:58:51.475Z,4.63
2018-06-09T12:01:20.575Z,4.37
2018-06-09T12:03:49.691Z,4.10
2018-06-09T12:06:18.798Z,3.90
2018-06-09T12:08:47.879Z,3.80
2018-06-09T12:11:16.987Z,4.37
2018-06-09T12:13:46.059Z,4.30
2018-06-09T12:16:15.218Z,4.07
2018-06-09T12:18:44.522Z,4.30
2018-06-09T12:21:13.615Z,4.13
2018-06-09T12:23:42.739Z,4.57
2018-06-09T12:26:11.814Z,4.43
2018-06-09T12:28:40.956Z,4.07
2018-06-09T12:31:10.020Z,4.40
2018-06-09T12:33:39.115Z,3.83
2018-06-09T12:36:08.203Z,4.47
2018-06-09T12:38:37.372Z,3.67
2018-06-09T12:41:06.511Z,3.70
2018-06-09T12:43:36.458Z,3.57
2018-06-09T12:46:05.751Z,2.40
2018-06-09T12:48:35.054Z,3.43
2018-06-09T12:51:04.300Z,3.97
2018-06-09T12:53:33.529Z,3.60
2018-06-09T12:56:02.764Z,4.00
2018-06-09T12:58:31.951Z,3.23
2018-06-09T13:01:01.161Z,2.50
2018-06-09T13:03:30.286Z,3.00
2018-06-09T13:05:59.389Z,3.07
2018-06-09T13:08:28.537Z,2.73
2018-06-09T13:10:57.607Z,2.90
2018-06-09T13:13:26.702Z,2.50
2018-06-09T13:15:55.832Z,3.03
2018-06-09T13:18:24.968Z,2.40
2018-06-09T13:20:54.054Z,2.40
2018-06-09T13:23:23.131Z,2.23
2018-06-09T13:25:52.293Z,2.53
2018-06-09T13:28:21.383Z,2.47
2018-06-09T13:30:50.134Z,3.13
2018-06-09T13:33:19.114Z,3.03
2018-06-09T13:35:48.220Z,3.23
2018-06-09T13:38:17.294Z,2.60
2018-06-09T13:40:46.626Z,3.40
2018-06-09T13:43:15.703Z,3.57
2018-06-09T13:45:44.811Z,3.70
2018-06-09T13:48:13.879Z,2.63
2018-06-09T13:50:42.980Z,3.20
2018-06-09T13:53:12.167Z,2.97
2018-06-09T13:55:41.300Z,3.10
2018-06-09T13:58:10.392Z,2.80
2018-06-09T14:00:39.574Z,3.00
2018-06-09T14:03:08.893Z,3.07
2018-06-09T14:05:38.004Z,3.10
2018-06-09T14:08:07.095Z,2.97
2018-06-09T14:10:36.224Z,3.50
2018-06-09T14:13:05.367Z,3.20
2018-06-09T14:15:34.549Z,4.10
2018-06-09T14:18:03.764Z,3.70
2018-06-09T14:20:32.958Z,4.33
2018-06-09T14:23:02.152Z,3.60
2018-06-09T14:25:31.339Z,3.97
2018-06-09T14:28:00.495Z,4.20
2018-06-09T14:30:29.591Z,3.70
2018-06-09T14:32:58.747Z,3.80
2018-06-09T14:35:27.891Z,4.90
2018-06-09T14:37:57.004Z,3.97
2018-06-09T14:40:26.116Z,4.07
2018-06-09T14:42:55.191Z,5.43
2018-06-09T14:45:24.507Z,5.00
2018-06-09T14:47:53.599Z,5.80
2018-06-09T14:50:22.704Z,4.83
2018-06-09T14:52:51.919Z,5.40
2018-06-09T14:55:21.042Z,4.80
2018-06-09T14:57:50.135Z,5.07
2018-06-09T15:00:19.307Z,6.23
2018-06-09T15:02:48.419Z,5.22
2018-06-09T15:05:17.513Z,4.80
2018-06-09T15:07:46.608Z,4.60
2018-06-09T15:10:15.682Z,4.53
2018-06-09T15:12:44.791Z,5.33
2018-06-09T15:15:14.059Z,5.50
2018-06-09T15:17:43.314Z,5.47
2018-06-09T15:20:12.402Z,5.30
2018-06-09T15:22:41.585Z,5.23
2018-06-09T15:25:10.646Z,4.80
2018-06-09T15:27:40.012Z,4.57
2018-06-09T15:30:09.215Z,4.90
2018-06-09T15:32:38.307Z,4.97
2018-06-09T15:35:07.603Z,4.90
2018-06-09T15:37:36.683Z,4.90
2018-06-09T15:40:05.854Z,4.95
2018-06-09T15:42:35.031Z,5.00
2018-06-09T15:45:04.191Z,5.08
2018-06-09T15:47:33.014Z,4.60
2018-06-09T15:50:02.051Z,4.33
2018-06-09T15:52:31.266Z,4.70
2018-06-09T15:55:00.370Z,4.87
2018-06-09T15:57:29.867Z,5.67
2018-06-09T15:59:59.323Z,4.58
2018-06-09T16:02:28.499Z,4.53
2018-06-09T16:04:57.575Z,4.93
2018-06-09T16:07:26.707Z,4.77
2018-06-09T16:09:55.803Z,4.60
2018-06-09T16:12:24.919Z,4.83
2018-06-09T16:14:54.056Z,3.80
2018-06-09T16:17:23.154Z,3.73
2018-06-09T16:19:52.342Z,4.10
2018-06-09T16:22:21.418Z,3.10
2018-06-09T16:24:50.579Z,4.37
2018-06-09T16:27:19.670Z,3.60
2018-06-09T16:29:48.766Z,3.60
2018-06-09T16:32:17.867Z,3.70
2018-06-09T16:34:46.737Z,3.07
2018-06-09T16:37:15.724Z,3.00
2018-06-09T16:39:44.830Z,4.10
2018-06-09T16:42:13.922Z,4.20
2018-06-09T16:44:43.035Z,4.33
2018-06-09T16:47:12.143Z,3.50
2018-06-09T16:49:41.254Z,3.10
2018-06-09T16:52:10.356Z,3.20
2018-06-09T16:54:39.459Z,5.17
2018-06-09T16:57:08.590Z,4.10
2018-06-09T16:59:37.725Z,3.80
2018-06-09T17:02:06.896Z,4.13
2018-06-09T17:04:36.025Z,3.73
2018-06-09T17:07:05.346Z,3.30
2018-06-09T17:09:34.431Z,3.53
2018-06-09T17:12:03.573Z,4.17
2018-06-09T17:14:32.823Z,4.00
2018-06-09T17:17:02.091Z,3.57
2018-06-09T17:19:31.290Z,4.53
2018-06-09T17:22:00.386Z,3.80
2018-06-09T17:24:29.515Z,4.90
2018-06-09T17:26:58.711Z,3.98
2018-06-09T17:29:27.851Z,4.50
2018-06-09T17:31:56.931Z,4.62
2018-06-09T17:34:26.047Z,4.73
2018-06-09T17:36:55.190Z,5.73
2018-06-09T17:39:24.275Z,5.00
2018-06-09T17:41:53.382Z,5.37
2018-06-09T17:44:22.469Z,4.80
2018-06-09T17:46:51.576Z,4.90
2018-06-09T17:49:20.667Z,3.97
2018-06-09T17:51:49.787Z,4.47
2018-06-09T17:54:19.164Z,4.83
2018-06-09T17:56:48.266Z,4.77
2018-06-09T17:59:17.386Z,4.50
2018-06-09T18:01:46.487Z,4.50
2018-06-09T18:04:15.599Z,5.63
2018-06-09T18:06:44.695Z,5.70
2018-06-09T18:09:13.811Z,5.37
2018-06-09T18:11:42.919Z,4.90
2018-06-09T18:14:12.035Z,5.20
2018-06-09T18:16:41.149Z,5.40
2018-06-09T18:19:10.250Z,4.80
2018-06-09T18:21:39.354Z,5.80
2018-06-09T18:24:08.566Z,4.90
2018-06-09T18:26:37.647Z,4.90
2018-06-09T18:29:06.766Z,5.17
2018-06-09T18:31:35.870Z,4.60
2018-06-09T18:34:05.175Z,5.22
2018-06-09T18:36:34.465Z,4.50
2018-06-09T18:39:04.750Z,4.60
2018-06-09T18:41:33.951Z,4.70
2018-06-09T18:44:03.147Z,5.33
2018-06-09T18:46:32.327Z,4.80
2018-06-09T18:49:01.411Z,5.43
2018-06-09T18:51:30.541Z,4.80
2018-06-09T18:53:59.309Z,5.10
2018-06-09T18:56:28.336Z,5.10
2018-06-09T18:58:57.476Z,4.55
2018-06-09T19:01:26.660Z,5.10
2018-06-09T19:03:55.811Z,5.03
2018-06-09T19:06:24.879Z,5.57
2018-06-09T19:08:53.631Z,5.55
2018-06-09T19:11:22.651Z,5.85
2018-06-09T19:13:51.753Z,4.53
2018-06-09T19:16:20.873Z,4.50
2018-06-09T19:18:50.032Z,4.35
2018-06-09T19:21:19.188Z,5.12
2018-06-09T19:23:48.650Z,5.20
2018-06-09T19:26:17.786Z,4.50
2018-06-09T19:28:47.003Z,5.07
2018-06-09T19:31:16.101Z,5.37
2018-06-09T19:33:45.222Z,6.10
2018-06-09T19:36:14.310Z,5.50
2018-06-09T19:38:43.450Z,4.30
2018-06-09T19:41:12.585Z,5.87
2018-06-09T19:43:41.671Z,4.70
2018-06-09T19:46:10.846Z,5.30
2018-06-09T19:48:39.579Z,5.27
2018-06-09T19:51:08.606Z,5.27
2018-06-09T19:53:37.711Z,5.83
2018-06-09T19:56:06.995Z,4.97
2018-06-09T19:58:36.130Z,5.70
2018-06-09T20:01:05.262Z,6.95
2018-06-09T20:03:34.499Z,5.43
2018-06-09T20:06:03.768Z,6.40
2018-06-09T20:08:32.906Z,6.50
2018-06-09T20:11:02.019Z,5.58
2018-06-09T20:13:30.825Z,5.67
2018-06-09T20:15:59.866Z,5.83
2018-06-09T20:18:28.951Z,6.47
2018-06-09T20:20:58.091Z,5.73
2018-06-09T20:23:27.195Z,6.35
2018-06-09T20:25:56.302Z,6.80
2018-06-09T20:28:25.576Z,6.30
2018-06-09T20:30:54.696Z,6.03
2018-06-09T20:33:23.871Z,6.67
2018-06-09T20:35:53.007Z,6.60
2018-06-09T20:38:22.245Z,7.10
2018-06-09T20:40:51.428Z,6.35
2018-06-09T20:43:20.591Z,7.80
2018-06-09T20:45:49.724Z,7.85
2018-06-09T20:48:18.891Z,7.23
2018-06-09T20:50:48.039Z,7.40
2018-06-09T20:53:17.158Z,6.65
2018-06-09T20:55:46.261Z,7.17
2018-06-09T20:58:15.376Z,6.00
2018-06-09T21:00:44.512Z,7.50
2018-06-09T21:03:13.619Z,6.58
2018-06-09T21:05:42.787Z,7.87
2018-06-09T21:08:11.840Z,7.30
2018-06-09T21:10:40.963Z,8.03
2018-06-09T21:13:10.120Z,6.75
2018-06-09T21:15:39.227Z,6.33
2018-06-09T21:18:08.360Z,7.58
2018-06-09T21:20:37.497Z,7.10
2018-06-09T21:23:06.623Z,7.30
2018-06-09T21:25:35.974Z,6.30
2018-06-09T21:28:10.632Z,6.40
2018-06-09T21:30:41.779Z,6.42
2018-06-09T21:33:24.997Z,6.50
2018-06-09T21:36:01.919Z,7.55
2018-06-09T21:38:38.610Z,6.67
2018-06-09T21:41:13.015Z,7.60
2018-06-09T21:43:47.281Z,6.70
2018-06-09T21:46:21.621Z,7.12
2018-06-09T21:48:50.786Z,7.78
2018-06-09T21:51:19.867Z,8.38
2018-06-09T21:53:49.071Z,7.87
2018-06-09T21:56:18.206Z,7.12
2018-06-09T21:58:47.322Z,8.13
2018-06-09T22:01:16.443Z,7.80
2018-06-09T22:03:45.686Z,7.00
2018-06-09T22:06:14.915Z,7.78
2018-06-09T22:08:44.019Z,7.40
2018-06-09T22:11:13.179Z,8.00
2018-06-09T22:13:42.344Z,7.65
2018-06-09T22:16:11.464Z,7.80
2018-06-09T22:18:40.579Z,6.42
2018-06-09T22:21:09.691Z,8.05
2018-06-09T22:23:38.823Z,7.33
2018-06-09T22:26:14.919Z,8.30
2018-06-09T22:28:44.377Z,7.03
2018-06-09T22:31:13.483Z,7.40
2018-06-09T22:33:42.691Z,7.90
2018-06-09T22:36:11.812Z,8.35
2018-06-09T22:38:40.912Z,7.33
2018-06-09T22:41:10.041Z,8.43
2018-06-09T22:43:39.138Z,7.80
2018-06-09T22:46:08.264Z,7.75
2018-06-09T22:48:37.549Z,7.15
2018-06-09T22:51:06.650Z,8.28
2018-06-09T22:53:35.851Z,7.97
2018-06-09T22:56:05.040Z,7.78
2018-06-09T22:58:34.182Z,8.93
2018-06-09T23:01:03.351Z,8.03
2018-06-09T23:03:32.773Z,8.85
2018-06-09T23:06:01.591Z,8.35
2018-06-09T23:08:30.627Z,8.58
2018-06-09T23:10:59.831Z,7.92
2018-06-09T23:13:28.971Z,6.80
2018-06-09T23:15:58.064Z,7.62
2018-06-09T23:18:27.204Z,6.90
2018-06-09T23:20:56.347Z,7.85
2018-06-09T23:23:25.480Z,8.00
2018-06-09T23:25:54.587Z,7.72
2018-06-09T23:28:23.674Z,7.40
2018-06-09T23:30:52.887Z,7.67
2018-06-09T23:33:21.954Z,7.40
2018-06-09T23:35:51.075Z,7.25
2018-06-09T23:38:20.197Z,8.08
2018-06-09T23:40:48.957Z,7.83
2018-06-09T23:43:18.096Z,7.55
2018-06-09T23:45:47.201Z,7.50
2018-06-09T23:48:16.448Z,7.00
2018-06-09T23:50:45.555Z,8.13
2018-06-09T23:53:14.659Z,7.62
2018-06-09T23:55:43.811Z,7.75
2018-06-09T23:58:12.969Z,7.53
